createdAt,value
2019-02-20T00:00:43.070Z,16.97
2019-02-20T00:03:16.479Z,16.35
2019-02-20T00:05:47.262Z,17.73
2019-02-20T00:08:17.734Z,17.27
2019-02-20T00:10:48.363Z,18.27
2019-02-20T00:13:19.181Z,17.20
2019-02-20T00:15:53.024Z,14.35
2019-02-20T00:18:23.549Z,11.23
2019-02-20T00:20:54.446Z,12.25
2019-02-20T00:23:26.218Z,11.60
2019-02-20T00:25:57.424Z,13.23
2019-02-20T00:28:27.910Z,16.00
2019-02-20T00:30:58.765Z,14.55
2019-02-20T00:33:29.220Z,16.37
2019-02-20T00:35:59.781Z,14.85
2019-02-20T00:38:30.258Z,14.18
2019-02-20T00:41:01.786Z,14.65
2019-02-20T00:43:32.248Z,15.20
2019-02-20T00:46:17.815Z,14.45
2019-02-20T00:49:02.780Z,14.10
2019-02-20T00:51:58.329Z,12.73
2019-02-20T00:54:31.162Z,15.83
2019-02-20T00:57:01.902Z,12.80
2019-02-20T00:59:32.384Z,14.20
2019-02-20T01:02:02.966Z,14.43
2019-02-20T01:04:33.518Z,13.62
2019-02-20T01:07:04.249Z,16.07
2019-02-20T01:09:35.102Z,16.05
2019-02-20T01:12:06.166Z,15.13
2019-02-20T01:14:36.626Z,15.40
2019-02-20T01:17:07.484Z,15.35
2019-02-20T01:21:06.730Z,14.23
2019-02-20T01:23:37.268Z,14.10
2019-02-20T01:26:08.772Z,13.03
2019-02-20T01:28:39.671Z,13.50
2019-02-20T01:31:10.490Z,12.63
2019-02-20T01:33:41.929Z,12.25
2019-02-20T01:36:15.452Z,11.88
2019-02-20T01:38:47.329Z,11.55
2019-02-20T01:41:17.792Z,12.45
2019-02-20T01:43:49.753Z,11.85
2019-02-20T01:46:21.391Z,12.85
2019-02-20T01:48:54.150Z,13.40
2019-02-20T01:51:32.745Z,13.13
2019-02-20T01:54:03.300Z,13.20
2019-02-20T01:56:34.415Z,12.55
2019-02-20T01:59:04.890Z,12.27
2019-02-20T02:01:36.693Z,12.77
2019-02-20T02:04:07.664Z,12.82
2019-02-20T02:06:38.161Z,12.73
2019-02-20T02:09:09.024Z,13.15
2019-02-20T02:11:41.345Z,12.43
2019-02-20T02:14:11.900Z,13.15
2019-02-20T02:16:43.475Z,12.28
2019-02-20T02:19:14.238Z,12.68
2019-02-20T02:21:44.714Z,13.32
2019-02-20T02:24:15.182Z,13.70
2019-02-20T02:26:45.649Z,12.47
2019-02-20T02:29:16.135Z,12.80
2019-02-20T02:31:46.601Z,13.57
2019-02-20T02:34:17.112Z,13.23
2019-02-20T02:36:47.557Z,12.57
2019-02-20T02:39:18.084Z,13.13
2019-02-20T02:41:48.674Z,12.43
2019-02-20T02:44:19.170Z,12.20
2019-02-20T02:46:49.654Z,12.82
2019-02-20T02:49:20.127Z,13.35
2019-02-20T02:51:50.893Z,13.05
2019-02-20T02:54:21.373Z,13.85
2019-02-20T02:56:53.212Z,12.00
2019-02-20T02:59:23.713Z,11.83
2019-02-20T03:01:54.219Z,12.55
2019-02-20T03:04:24.974Z,12.90
2019-02-20T03:06:55.460Z,13.13
2019-02-20T03:09:25.945Z,14.30
2019-02-20T03:11:56.414Z,14.23
2019-02-20T03:14:27.218Z,13.85
2019-02-20T03:16:57.681Z,13.98
2019-02-20T03:19:29.212Z,13.65
2019-02-20T03:21:59.706Z,14.10
2019-02-20T03:24:30.201Z,14.98
2019-02-20T03:27:00.745Z,13.62
2019-02-20T03:30:10.877Z,14.60
2019-02-20T03:32:41.442Z,14.70
2019-02-20T03:35:11.936Z,15.03
2019-02-20T03:37:42.415Z,15.18
2019-02-20T03:40:13.257Z,15.40
2019-02-20T03:42:43.706Z,13.70
2019-02-20T03:45:14.218Z,14.53
2019-02-20T03:47:45.002Z,14.10
2019-02-20T03:50:15.558Z,15.68
2019-02-20T03:52:46.023Z,14.90
2019-02-20T03:55:16.530Z,14.30
2019-02-20T03:57:47.179Z,14.03
2019-02-20T04:00:17.703Z,14.15
2019-02-20T04:02:48.180Z,14.10
2019-02-20T04:05:19.035Z,15.10
2019-02-20T04:07:49.511Z,15.00
2019-02-20T04:10:20.299Z,14.03
2019-02-20T04:12:51.083Z,14.07
2019-02-20T04:15:21.552Z,14.43
2019-02-20T04:17:52.071Z,14.83
2019-02-20T04:20:22.544Z,15.50
2019-02-20T04:22:53.008Z,14.73
2019-02-20T04:25:23.552Z,14.80
2019-02-20T04:27:54.013Z,15.00
2019-02-20T04:30:24.717Z,15.03
2019-02-20T04:32:55.165Z,15.57
2019-02-20T04:35:26.724Z,15.30
2019-02-20T04:37:57.187Z,14.27
2019-02-20T04:40:27.693Z,13.73
2019-02-20T04:42:58.581Z,15.37
2019-02-20T04:45:29.221Z,14.58
2019-02-20T04:47:59.709Z,15.23
2019-02-20T04:50:31.176Z,15.55
2019-02-20T04:53:01.645Z,15.55
2019-02-20T04:55:32.873Z,16.42
2019-02-20T04:58:31.796Z,15.10
2019-02-20T05:01:05.462Z,14.55
2019-02-20T05:03:37.571Z,15.23
2019-02-20T05:06:08.379Z,15.07
2019-02-20T05:08:38.858Z,14.23
2019-02-20T05:11:10.304Z,15.55
2019-02-20T05:13:40.742Z,14.43
2019-02-20T05:16:11.204Z,15.20
2019-02-20T05:18:41.711Z,14.33
2019-02-20T05:21:12.230Z,13.97
2019-02-20T05:23:43.034Z,14.33
2019-02-20T05:26:13.765Z,15.05
2019-02-20T05:28:44.534Z,14.58
2019-02-20T05:31:16.544Z,14.80
2019-02-20T05:33:47.253Z,13.43
2019-02-20T05:36:17.723Z,16.23
2019-02-20T05:38:48.185Z,14.00
2019-02-20T05:41:19.029Z,13.07
2019-02-20T05:43:49.476Z,13.53
2019-02-20T05:46:19.929Z,14.20
2019-02-20T05:48:50.875Z,14.55
2019-02-20T05:51:22.381Z,15.23
2019-02-20T05:53:53.234Z,16.57
2019-02-20T05:56:23.690Z,15.67
2019-02-20T05:58:54.468Z,14.35
2019-02-20T06:01:25.358Z,14.37
2019-02-20T06:03:55.809Z,14.53
2019-02-20T06:06:26.276Z,15.60
2019-02-20T06:08:56.814Z,13.35
2019-02-20T06:11:27.320Z,13.97
2019-02-20T06:13:57.792Z,14.28
2019-02-20T06:16:28.260Z,14.73
2019-02-20T06:18:58.734Z,15.88
2019-02-20T06:21:29.213Z,15.23
2019-02-20T06:23:59.734Z,16.62
2019-02-20T06:26:30.221Z,17.07
2019-02-20T06:29:00.688Z,15.85
2019-02-20T06:31:31.348Z,14.70
2019-02-20T06:34:02.195Z,15.05
2019-02-20T06:36:32.664Z,14.10
2019-02-20T06:39:04.502Z,14.85
2019-02-20T06:41:39.229Z,14.38
2019-02-20T06:44:07.425Z,15.18
2019-02-20T06:46:37.957Z,16.17
2019-02-20T06:49:08.816Z,16.77
2019-02-20T06:51:39.273Z,17.43
2019-02-20T06:54:09.724Z,15.90
2019-02-20T06:56:40.862Z,15.67
2019-02-20T06:59:11.485Z,18.23
2019-02-20T07:01:41.997Z,15.80
2019-02-20T07:04:19.018Z,16.95
2019-02-20T07:07:14.338Z,16.75
2019-02-20T07:10:32.404Z,15.78
2019-02-20T07:13:47.361Z,15.00
2019-02-20T07:16:49.341Z,15.70
2019-02-20T07:19:28.948Z,12.60
2019-02-20T07:22:28.208Z,13.80
2019-02-20T07:25:20.591Z,12.30
2019-02-20T07:28:20.360Z,10.60
2019-02-20T07:30:50.866Z,11.43
2019-02-20T07:33:21.336Z,11.47
2019-02-20T07:35:51.801Z,13.70
2019-02-20T07:38:22.580Z,12.63
2019-02-20T07:40:53.046Z,12.87
2019-02-20T07:43:23.512Z,13.30
2019-02-20T07:45:53.976Z,12.53
2019-02-20T07:48:24.416Z,13.27
2019-02-20T07:50:54.882Z,12.93
2019-02-20T07:53:25.337Z,13.30
2019-02-20T07:55:55.785Z,12.93
2019-02-20T07:58:26.209Z,13.17
2019-02-20T08:00:56.660Z,13.50
2019-02-20T08:03:27.101Z,13.23
2019-02-20T08:05:57.556Z,14.60
2019-02-20T08:08:28.004Z,15.67
2019-02-20T08:10:58.466Z,15.07
2019-02-20T08:13:28.949Z,15.33
2019-02-20T08:15:59.672Z,15.87
2019-02-20T08:18:30.476Z,15.00
2019-02-20T08:21:00.948Z,15.70
2019-02-20T08:23:31.408Z,16.30
2019-02-20T08:26:01.853Z,15.10
2019-02-20T08:28:32.656Z,16.67
2019-02-20T08:31:03.104Z,15.57
2019-02-20T08:33:33.546Z,14.40
2019-02-20T08:36:04.002Z,15.57
2019-02-20T08:38:34.758Z,14.70
2019-02-20T08:41:05.189Z,15.30
2019-02-20T08:43:35.649Z,14.87
2019-02-20T08:46:06.102Z,15.60
2019-02-20T08:48:36.555Z,14.57
2019-02-20T08:51:07.333Z,15.03
2019-02-20T08:53:38.070Z,16.23
2019-02-20T08:56:08.558Z,14.17
2019-02-20T08:58:39.376Z,14.30
2019-02-20T09:01:09.823Z,14.37
2019-02-20T09:03:40.640Z,14.33
2019-02-20T09:06:11.099Z,14.97
2019-02-20T09:08:41.737Z,14.97
2019-02-20T09:11:12.184Z,13.50
2019-02-20T09:13:42.869Z,14.93
2019-02-20T09:16:13.701Z,16.00
2019-02-20T09:18:44.568Z,14.17
2019-02-20T09:21:15.012Z,14.43
2019-02-20T09:23:46.066Z,14.50
2019-02-20T09:26:16.538Z,14.20
2019-02-20T09:28:47.060Z,13.03
2019-02-20T09:31:17.917Z,13.53
2019-02-20T09:33:48.364Z,13.37
2019-02-20T09:36:19.166Z,13.83
2019-02-20T09:38:49.621Z,14.67
2019-02-20T09:41:21.042Z,14.43
2019-02-20T09:43:51.488Z,15.37
2019-02-20T09:46:21.965Z,14.07
2019-02-20T09:48:52.402Z,14.03
2019-02-20T09:51:22.838Z,13.53
2019-02-20T09:53:53.301Z,15.90
2019-02-20T09:56:23.803Z,14.47
2019-02-20T09:58:54.650Z,14.93
2019-02-20T10:01:25.422Z,14.17
2019-02-20T10:03:55.919Z,14.67
2019-02-20T10:06:26.366Z,13.47
2019-02-20T10:08:56.845Z,13.27
2019-02-20T10:11:27.327Z,14.13
2019-02-20T10:13:58.061Z,15.43
2019-02-20T10:16:28.527Z,14.83
2019-02-20T10:18:58.969Z,14.30
2019-02-20T10:21:29.452Z,14.27
2019-02-20T10:23:59.896Z,14.77
2019-02-20T10:26:30.656Z,13.23
2019-02-20T10:29:01.124Z,13.40
2019-02-20T10:31:31.585Z,14.23
2019-02-20T10:34:02.113Z,13.03
2019-02-20T10:36:32.554Z,13.23
2019-02-20T10:39:03.203Z,13.57
2019-02-20T10:41:35.020Z,13.10
2019-02-20T10:44:05.521Z,13.93
2019-02-20T10:46:35.973Z,13.80
2019-02-20T10:49:06.437Z,14.20
2019-02-20T10:51:36.902Z,13.30
2019-02-20T10:54:07.355Z,13.40
2019-02-20T10:56:37.826Z,13.23
2019-02-20T10:59:09.358Z,13.10
2019-02-20T11:01:39.922Z,13.53
2019-02-20T11:04:10.369Z,13.17
2019-02-20T11:06:40.989Z,13.47
2019-02-20T11:09:11.479Z,13.43
2019-02-20T11:11:43.360Z,13.20
2019-02-20T11:14:13.874Z,13.73
2019-02-20T11:16:44.360Z,14.03
2019-02-20T11:19:15.673Z,12.70
2019-02-20T11:21:47.313Z,13.80
2019-02-20T11:24:17.961Z,12.30
2019-02-20T11:26:54.276Z,11.83
2019-02-20T11:29:20.709Z,11.53
2019-02-20T11:31:51.257Z,11.83
2019-02-20T11:34:22.082Z,11.20
2019-02-20T11:36:52.525Z,11.50
2019-02-20T11:39:23.053Z,10.80
2019-02-20T11:41:53.501Z,9.77
2019-02-20T11:44:24.265Z,10.47
2019-02-20T11:46:54.716Z,9.80
2019-02-20T11:49:25.170Z,9.50
2019-02-20T11:51:55.616Z,10.50
2019-02-20T11:54:26.059Z,10.30
2019-02-20T11:56:56.861Z,9.67
2019-02-20T11:59:27.348Z,9.83
2019-02-20T12:01:58.137Z,9.93
2019-02-20T12:04:28.604Z,9.50
2019-02-20T12:07:00.025Z,9.67
2019-02-20T12:09:30.545Z,9.57
2019-02-20T12:12:00.997Z,10.40
2019-02-20T12:14:31.525Z,10.43
2019-02-20T12:17:03.968Z,10.47
2019-02-20T12:19:34.612Z,10.30
2019-02-20T12:22:05.065Z,10.20
2019-02-20T12:24:35.527Z,10.90
2019-02-20T12:27:05.970Z,11.27
2019-02-20T12:29:36.505Z,12.20
2019-02-20T12:32:06.947Z,12.23
2019-02-20T12:34:37.402Z,12.47
2019-02-20T12:37:07.841Z,11.50
2019-02-20T12:39:38.293Z,12.50
2019-02-20T12:42:08.800Z,12.60
2019-02-20T12:44:39.256Z,11.83
2019-02-20T12:47:09.709Z,11.80
2019-02-20T12:49:40.233Z,11.33
2019-02-20T12:52:10.669Z,11.87
2019-02-20T12:54:41.137Z,12.13
2019-02-20T12:57:11.651Z,11.53
2019-02-20T12:59:42.184Z,11.20
2019-02-20T13:02:12.695Z,11.43
2019-02-20T13:04:43.428Z,12.57
2019-02-20T13:07:14.050Z,12.13
2019-02-20T13:09:44.514Z,11.77
2019-02-20T13:12:16.933Z,11.70
2019-02-20T13:14:47.480Z,12.00
2019-02-20T13:17:17.941Z,12.20
2019-02-20T13:19:48.421Z,12.67
2019-02-20T13:22:18.913Z,12.37
2019-02-20T13:24:49.671Z,12.40
2019-02-20T13:27:22.871Z,12.23
2019-02-20T13:29:53.666Z,12.23
2019-02-20T13:32:24.101Z,11.53
2019-02-20T13:34:54.565Z,12.03
2019-02-20T13:37:25.434Z,12.80
2019-02-20T13:39:55.885Z,11.63
2019-02-20T13:42:26.397Z,11.93
2019-02-20T13:44:57.291Z,11.20
2019-02-20T13:47:28.370Z,11.23
2019-02-20T13:49:59.149Z,11.10
2019-02-20T13:52:30.512Z,11.20
2019-02-20T13:55:01.516Z,10.83
2019-02-20T13:57:31.961Z,10.93
2019-02-20T14:00:02.792Z,10.90
2019-02-20T14:02:33.706Z,10.83
2019-02-20T14:05:04.203Z,11.43
2019-02-20T14:07:35.656Z,11.60
2019-02-20T14:10:08.560Z,10.80
2019-02-20T14:12:39.083Z,11.10
2019-02-20T14:15:10.440Z,9.93
2019-02-20T14:17:40.909Z,11.33
2019-02-20T14:20:11.435Z,11.47
2019-02-20T14:22:42.263Z,10.70
2019-02-20T14:25:12.722Z,10.03
2019-02-20T14:27:43.153Z,9.17
2019-02-20T14:30:13.597Z,9.77
2019-02-20T14:32:44.096Z,11.83
2019-02-20T14:35:15.100Z,12.47
2019-02-20T14:37:46.052Z,10.13
2019-02-20T14:40:17.145Z,10.60
2019-02-20T14:42:47.646Z,10.37
2019-02-20T14:45:18.123Z,10.87
2019-02-20T14:47:48.747Z,11.17
2019-02-20T14:50:19.736Z,9.87
2019-02-20T14:52:50.178Z,10.10
2019-02-20T14:55:20.631Z,10.33
2019-02-20T14:57:51.337Z,10.47
2019-02-20T15:00:22.441Z,10.50
2019-02-20T15:02:52.921Z,10.33
2019-02-20T15:05:23.541Z,9.33
2019-02-20T15:07:54.077Z,9.70
2019-02-20T15:10:25.034Z,10.00
2019-02-20T15:12:55.512Z,9.10
2019-02-20T15:15:26.285Z,9.63
2019-02-20T15:17:56.894Z,8.10
2019-02-20T15:20:27.344Z,8.90
2019-02-20T15:22:58.455Z,9.27
2019-02-20T15:25:29.014Z,8.50
2019-02-20T15:27:59.501Z,8.63
2019-02-20T15:30:29.950Z,8.53
2019-02-20T15:33:00.695Z,8.70
2019-02-20T15:35:32.286Z,9.17
2019-02-20T15:38:02.845Z,10.00
2019-02-20T15:40:33.733Z,9.43
2019-02-20T15:43:04.242Z,11.03
2019-02-20T15:45:34.698Z,8.97
2019-02-20T15:48:05.175Z,9.03
2019-02-20T15:50:35.762Z,9.57
2019-02-20T15:53:07.045Z,8.77
2019-02-20T15:55:38.504Z,9.97
2019-02-20T15:58:09.000Z,9.40
2019-02-20T16:00:41.408Z,10.70
2019-02-20T16:03:12.618Z,13.63
2019-02-20T16:05:43.093Z,10.80
2019-02-20T16:08:14.193Z,11.80
2019-02-20T16:10:44.637Z,11.97
2019-02-20T16:13:15.133Z,12.20
2019-02-20T16:15:45.583Z,11.60
2019-02-20T16:18:16.065Z,12.30
2019-02-20T16:20:46.501Z,12.17
2019-02-20T16:23:16.973Z,12.13
2019-02-20T16:25:47.565Z,12.93
2019-02-20T16:28:18.429Z,12.47
2019-02-20T16:30:48.996Z,11.80
2019-02-20T16:33:19.445Z,11.63
2019-02-20T16:35:53.362Z,12.23
2019-02-20T16:38:23.704Z,11.70
2019-02-20T16:40:54.178Z,12.07
2019-02-20T16:43:24.644Z,12.80
2019-02-20T16:45:55.250Z,12.63
2019-02-20T16:48:26.750Z,11.70
2019-02-20T16:50:57.209Z,12.00
2019-02-20T16:53:27.664Z,11.50
2019-02-20T16:55:58.508Z,11.80
2019-02-20T16:58:29.055Z,12.10
2019-02-20T17:00:59.508Z,12.37
2019-02-20T17:03:29.978Z,13.47
2019-02-20T17:06:00.437Z,12.97
2019-02-20T17:08:31.091Z,12.50
2019-02-20T17:11:01.866Z,12.67
2019-02-20T17:13:32.337Z,12.03
2019-02-20T17:16:02.781Z,12.50
2019-02-20T17:18:33.248Z,12.40
2019-02-20T17:21:03.752Z,12.27
2019-02-20T17:23:34.608Z,12.33
2019-02-20T17:26:05.197Z,11.87
2019-02-20T17:28:35.750Z,12.87
2019-02-20T17:31:06.578Z,10.87
2019-02-20T17:33:37.164Z,12.40
2019-02-20T17:36:07.636Z,12.33
2019-02-20T17:38:38.289Z,11.90
2019-02-20T17:41:09.058Z,12.43
2019-02-20T17:43:39.832Z,11.63
2019-02-20T17:46:10.668Z,11.87
2019-02-20T17:48:41.168Z,11.43
2019-02-20T17:51:12.037Z,11.67
2019-02-20T17:53:42.541Z,11.77
2019-02-20T17:56:13.090Z,12.20
2019-02-20T17:58:43.858Z,12.20
2019-02-20T18:01:17.238Z,11.47
2019-02-20T18:03:48.093Z,11.77
2019-02-20T18:06:19.070Z,12.60
2019-02-20T18:08:50.048Z,11.93
2019-02-20T18:11:20.495Z,11.63
2019-02-20T18:13:50.993Z,12.33
2019-02-20T18:16:21.484Z,11.37
2019-02-20T18:18:51.913Z,12.33
2019-02-20T18:21:22.425Z,12.03
2019-02-20T18:23:52.955Z,13.00
2019-02-20T18:26:23.435Z,14.37
2019-02-20T18:28:53.934Z,14.27
2019-02-20T18:31:24.394Z,20.17
2019-02-20T18:33:55.183Z,16.35
2019-02-20T18:36:25.636Z,16.47
2019-02-20T18:38:56.475Z,20.70
2019-02-20T18:41:26.957Z,16.37
2019-02-20T18:43:57.480Z,17.33
2019-02-20T18:46:28.194Z,14.90
2019-02-20T18:48:58.646Z,14.30
2019-02-20T18:51:29.434Z,14.07
2019-02-20T18:54:00.002Z,17.33
2019-02-20T18:56:30.496Z,14.97
2019-02-20T18:59:00.992Z,14.23
2019-02-20T19:01:31.576Z,13.97
2019-02-20T19:04:02.141Z,14.97
2019-02-20T19:06:32.962Z,14.10
2019-02-20T19:09:23.875Z,12.63
2019-02-20T19:12:10.621Z,12.33
2019-02-20T19:15:25.544Z,13.60
2019-02-20T19:19:02.625Z,13.17
2019-02-20T19:22:22.794Z,14.57
2019-02-20T19:25:33.531Z,13.80
2019-02-20T19:28:15.435Z,13.87
2019-02-20T19:31:20.889Z,14.10
2019-02-20T19:34:25.455Z,14.30
2019-02-20T19:37:44.386Z,13.50
2019-02-20T19:40:29.936Z,13.27
2019-02-20T19:43:40.234Z,14.23
2019-02-20T19:46:57.644Z,13.23
2019-02-20T19:50:11.412Z,13.37
2019-02-20T19:53:17.889Z,13.03
2019-02-20T19:56:22.700Z,13.63
2019-02-20T19:59:40.079Z,12.90
2019-02-20T20:03:00.525Z,13.23
2019-02-20T20:06:09.503Z,14.23
2019-02-20T20:08:51.474Z,14.13
2019-02-20T20:11:56.937Z,13.93
2019-02-20T20:15:17.416Z,13.73
2019-02-20T20:18:29.244Z,13.43
2019-02-20T20:21:31.629Z,12.73
2019-02-20T20:24:52.680Z,13.47
2019-02-20T20:27:55.865Z,13.07
2019-02-20T20:30:58.378Z,13.90
2019-02-20T20:33:54.770Z,13.20
2019-02-20T20:37:15.889Z,13.33
2019-02-20T20:40:26.126Z,12.80
2019-02-20T20:43:47.546Z,12.03
2019-02-20T20:46:37.919Z,12.27
2019-02-20T20:50:10.919Z,13.23
2019-02-20T20:53:12.845Z,11.87
2019-02-20T20:56:20.335Z,12.00
2019-02-20T20:59:22.065Z,11.43
2019-02-20T21:02:19.720Z,12.23
2019-02-20T21:05:43.818Z,11.73
2019-02-20T21:08:44.233Z,11.67
2019-02-20T21:12:02.267Z,11.63
2019-02-20T21:14:53.933Z,10.97
2019-02-20T21:18:03.709Z,11.90
2019-02-20T21:20:57.121Z,11.17
2019-02-20T21:24:09.902Z,12.63
2019-02-20T21:27:24.564Z,13.43
2019-02-20T21:30:20.408Z,12.83
2019-02-20T21:33:24.096Z,14.20
2019-02-20T21:36:07.547Z,12.67
2019-02-20T21:39:15.256Z,14.87
2019-02-20T21:42:28.177Z,13.17
2019-02-20T21:45:33.448Z,14.10
2019-02-20T21:48:53.152Z,13.17
2019-02-20T21:52:04.236Z,12.60
2019-02-20T21:54:55.821Z,12.28
2019-02-20T21:58:07.921Z,11.27
2019-02-20T22:00:44.665Z,11.50
2019-02-20T22:03:57.793Z,11.87
2019-02-20T22:07:04.454Z,11.83
2019-02-20T22:09:57.867Z,11.30
2019-02-20T22:13:11.020Z,11.57
2019-02-20T22:16:10.739Z,10.90
2019-02-20T22:19:02.619Z,11.30
2019-02-20T22:22:08.914Z,11.10
2019-02-20T22:25:04.664Z,11.00
2019-02-20T22:28:25.649Z,11.17
2019-02-20T22:31:38.836Z,10.97
2019-02-20T22:34:27.453Z,10.33
2019-02-20T22:38:06.381Z,10.43
2019-02-20T22:41:03.891Z,11.03
2019-02-20T22:44:20.166Z,11.10
2019-02-20T22:47:33.714Z,11.17
2019-02-20T22:50:33.073Z,12.20
2019-02-20T22:53:14.236Z,11.73
2019-02-20T22:56:11.339Z,12.03
2019-02-20T22:58:50.079Z,13.07
2019-02-20T23:02:06.611Z,12.97
2019-02-20T23:05:16.456Z,12.33
2019-02-20T23:08:25.361Z,13.73
2019-02-20T23:11:52.592Z,12.20
2019-02-20T23:14:54.624Z,12.07
2019-02-20T23:17:29.748Z,13.47
2019-02-20T23:20:00.375Z,13.33
2019-02-20T23:22:31.013Z,14.23
2019-02-20T23:25:01.487Z,12.70
2019-02-20T23:27:32.151Z,12.87
2019-02-20T23:30:12.189Z,11.50
2019-02-20T23:32:36.544Z,12.20
2019-02-20T23:35:07.468Z,13.27
2019-02-20T23:37:38.516Z,12.37
2019-02-20T23:40:09.897Z,10.90
2019-02-20T23:42:41.126Z,11.30
2019-02-20T23:45:14.964Z,11.90
2019-02-20T23:47:46.410Z,11.27
2019-02-20T23:50:18.863Z,11.17
2019-02-20T23:52:49.449Z,11.47
2019-02-20T23:55:27.454Z,11.23
2019-02-20T23:57:58.019Z,10.97
